Time,TemperatureF,DewpointF,PressureIn,WindDirection,WindDirectionDegrees,WindSpeedMPH,WindSpeedGustMPH,Humidity,HourlyPrecipIn,Conditions,Clouds,dailyrainin,SoftwareType,DateUTC
2013-04-06 00:00:00,57.3,49.8,30.08,SE,143,4.0,7.0,76,0.00,,SKC,0.00,VWS V14.01,2013-04-06 05:00:00,
2013-04-06 00:05:00,57.2,49.4,30.08,SE,143,2.0,7.0,75,0.00,,SKC,0.00,VWS V14.01,2013-04-06 05:05:00,
2013-04-06 00:10:00,57.1,49.3,30.07,SE,144,0.0,8.0,75,0.00,,SKC,0.00,VWS V14.01,2013-04-06 05:10:00,
2013-04-06 00:15:00,57.1,49.3,30.07,SE,144,0.0,8.0,75,0.00,,SKC,0.00,VWS V14.01,2013-04-06 05:15:00,
2013-04-06 00:20:00,56.9,48.7,30.07,SE,144,0.0,4.0,74,0.00,,SKC,0.00,VWS V14.01,2013-04-06 05:20:00,
2013-04-06 00:25:00,56.8,49.0,30.07,SE,144,0.0,5.0,75,0.00,,SKC,0.00,VWS V14.01,2013-04-06 05:25:00,
2013-04-06 00:30:00,56.7,48.9,30.06,SE,144,0.0,3.0,75,0.00,,SKC,0.00,VWS V14.01,2013-04-06 05:30:00,
2013-04-06 00:35:00,56.5,48.7,30.06,SE,144,1.0,4.0,75,0.00,,SKC,0.00,VWS V14.01,2013-04-06 05:35:00,
2013-04-06 00:40:00,56.4,48.9,30.07,SE,144,0.0,2.0,76,0.00,,SKC,0.00,VWS V14.01,2013-04-06 05:40:00,
2013-04-06 00:45:00,56.2,48.8,30.06,SE,144,4.0,4.0,76,0.00,,SKC,0.00,VWS V14.01,2013-04-06 05:45:00,
2013-04-06 00:50:00,56.1,48.7,30.06,SE,144,0.0,6.0,76,0.00,,SKC,0.00,VWS V14.01,2013-04-06 05:50:00,
2013-04-06 00:55:00,55.9,48.5,30.06,SE,144,0.0,6.0,76,0.00,,SKC,0.00,VWS V14.01,2013-04-06 05:55:00,
2013-04-06 01:00:00,55.7,48.3,30.06,SE,144,0.0,3.0,76,0.00,,SKC,0.00,VWS V14.01,2013-04-06 06:00:00,
2013-04-06 01:05:00,55.6,47.8,30.06,SE,144,0.0,6.0,75,0.00,,SKC,0.00,VWS V14.01,2013-04-06 06:05:00,
2013-04-06 01:10:00,55.4,48.0,30.07,SE,144,0.0,0.0,76,0.00,,SKC,0.00,VWS V14.01,2013-04-06 06:10:00,
2013-04-06 01:15:00,55.3,47.9,30.07,SE,144,0.0,5.0,76,0.00,,SKC,0.00,VWS V14.01,2013-04-06 06:15:00,
2013-04-06 01:20:00,55.1,47.7,30.06,SE,144,0.0,5.0,76,0.00,,SKC,0.00,VWS V14.01,2013-04-06 06:20:00,
2013-04-06 01:25:00,55.0,47.6,30.06,SE,144,0.0,5.0,76,0.00,,SKC,0.00,VWS V14.01,2013-04-06 06:25:00,
2013-04-06 01:30:00,54.8,47.4,30.06,SE,144,0.0,0.0,76,0.00,,SKC,0.00,VWS V14.01,2013-04-06 06:30:00,
2013-04-06 01:35:00,54.7,47.6,30.06,SE,144,0.0,0.0,77,0.00,,SKC,0.00,VWS V14.01,2013-04-06 06:35:00,
2013-04-06 01:40:00,54.5,47.5,30.05,SE,144,0.0,0.0,77,0.00,,SKC,0.00,VWS V14.01,2013-04-06 06:40:00,
2013-04-06 01:45:00,54.4,47.3,30.05,SE,144,0.0,0.0,77,0.00,,SKC,0.00,VWS V14.01,2013-04-06 06:45:00,
2013-04-06 01:50:00,54.2,47.5,30.05,SE,144,0.0,0.0,78,0.00,,SKC,0.00,VWS V14.01,2013-04-06 06:50:00,
2013-04-06 01:55:00,54.1,47.4,30.05,SE,144,0.0,0.0,78,0.00,,SKC,0.00,VWS V14.01,2013-04-06 06:55:00,
2013-04-06 02:00:00,54.0,47.3,30.04,SE,144,0.0,0.0,78,0.00,,SKC,0.00,VWS V14.01,2013-04-06 07:00:00,
2013-04-06 02:05:00,53.9,47.5,30.04,SE,144,0.0,0.0,79,0.00,,SKC,0.00,VWS V14.01,2013-04-06 07:05:00,
2013-04-06 02:10:00,53.8,47.5,30.04,SE,144,0.0,0.0,79,0.00,,SKC,0.00,VWS V14.01,2013-04-06 07:10:00,
2013-04-06 02:15:00,53.7,47.3,30.04,SE,144,0.0,0.0,79,0.00,,SKC,0.00,VWS V14.01,2013-04-06 07:15:00,
2013-04-06 02:20:00,53.6,47.3,30.04,SE,144,0.0,0.0,79,0.00,,SKC,0.00,VWS V14.01,2013-04-06 07:20:00,
2013-04-06 02:25:00,53.4,47.4,30.04,SE,144,0.0,0.0,80,0.00,,SKC,0.00,VWS V14.01,2013-04-06 07:25:00,
2013-04-06 02:30:00,53.5,47.5,30.04,SE,144,0.0,0.0,80,0.00,,SKC,0.00,VWS V14.01,2013-04-06 07:30:00,
2013-04-06 02:31:00,53.4,47.4,30.04,SE,144,0.0,0.0,80,0.00,,SKC,0.00,VWS V14.01,2013-04-06 07:31:00,
2013-04-06 02:36:00,53.3,47.3,30.04,SE,144,0.0,0.0,80,0.00,,SKC,0.00,VWS V14.01,2013-04-06 07:36:00,
2013-04-06 02:40:00,53.3,47.3,30.04,SE,144,0.0,0.0,80,0.00,,SKC,0.00,VWS V14.01,2013-04-06 07:40:00,
2013-04-06 02:41:00,53.2,47.5,30.04,SE,144,0.0,0.0,81,0.00,,SKC,0.00,VWS V14.01,2013-04-06 07:41:00,
2013-04-06 02:46:00,53.1,47.4,30.03,SE,144,0.0,0.0,81,0.00,,SKC,0.00,VWS V14.01,2013-04-06 07:46:00,
2013-04-06 02:50:00,53.1,47.4,30.03,SE,144,0.0,0.0,81,0.00,,SKC,0.00,VWS V14.01,2013-04-06 07:50:00,
2013-04-06 02:51:00,53.0,47.3,30.03,SE,144,0.0,0.0,81,0.00,,SKC,0.00,VWS V14.01,2013-04-06 07:51:00,
2013-04-06 02:56:00,52.8,47.1,30.03,SE,144,0.0,0.0,81,0.00,,SKC,0.00,VWS V14.01,2013-04-06 07:56:00,
2013-04-06 03:00:00,52.8,47.1,30.03,SE,144,0.0,0.0,81,0.00,,SKC,0.00,VWS V14.01,2013-04-06 08:00:00,
2013-04-06 03:01:00,52.6,46.9,30.03,SE,144,0.0,0.0,81,0.00,,SKC,0.00,VWS V14.01,2013-04-06 08:01:00,
2013-04-06 03:06:00,52.4,47.1,30.02,SE,144,0.0,0.0,82,0.00,,SKC,0.00,VWS V14.01,2013-04-06 08:06:00,
2013-04-06 03:10:00,52.4,47.1,30.02,SE,144,0.0,0.0,82,0.00,,SKC,0.00,VWS V14.01,2013-04-06 08:10:00,
2013-04-06 03:11:00,52.3,47.3,30.02,SE,144,0.0,0.0,83,0.00,,SKC,0.00,VWS V14.01,2013-04-06 08:11:00,
2013-04-06 03:15:00,52.2,47.5,30.01,SE,144,0.0,1.0,84,0.00,,SKC,0.00,VWS V14.01,2013-04-06 08:15:00,
2013-04-06 03:20:00,52.1,47.4,30.02,SE,144,0.0,0.0,84,0.00,,SKC,0.00,VWS V14.01,2013-04-06 08:20:00,
2013-04-06 03:25:00,52.0,47.6,30.01,SE,144,0.0,0.0,85,0.00,,SKC,0.00,VWS V14.01,2013-04-06 08:25:00,
2013-04-06 03:30:00,51.9,47.5,30.02,SE,144,0.0,2.0,85,0.00,,SKC,0.00,VWS V14.01,2013-04-06 08:30:00,
2013-04-06 03:35:00,51.9,47.8,30.01,SE,144,0.0,2.0,86,0.00,,SKC,0.00,VWS V14.01,2013-04-06 08:35:00,
2013-04-06 03:40:00,51.9,48.2,30.01,SE,144,0.0,0.0,87,0.00,,SKC,0.00,VWS V14.01,2013-04-06 08:40:00,
2013-04-06 03:45:00,51.9,48.2,30.01,SE,144,0.0,0.0,87,0.00,,SKC,0.00,VWS V14.01,2013-04-06 08:45:00,
2013-04-06 03:50:00,51.8,48.1,30.02,SE,144,0.0,0.0,87,0.00,,SKC,0.00,VWS V14.01,2013-04-06 08:50:00,
2013-04-06 03:55:00,51.7,48.0,30.02,SE,144,0.0,0.0,87,0.00,,SKC,0.00,VWS V14.01,2013-04-06 08:55:00,
2013-04-06 04:00:00,51.5,47.8,30.02,SE,144,0.0,0.0,87,0.00,,SKC,0.00,VWS V14.01,2013-04-06 09:00:00,
2013-04-06 04:05:00,51.4,47.7,30.01,SE,144,0.0,0.0,87,0.00,,SKC,0.00,VWS V14.01,2013-04-06 09:05:00,
2013-04-06 04:10:00,51.2,47.5,30.01,SE,144,0.0,0.0,87,0.00,,SKC,0.00,VWS V14.01,2013-04-06 09:10:00,
2013-04-06 04:15:00,51.1,47.7,30.02,SE,144,0.0,0.0,88,0.00,,SKC,0.00,VWS V14.01,2013-04-06 09:15:00,
2013-04-06 04:20:00,51.0,47.9,30.02,SE,144,0.0,0.0,89,0.00,,SKC,0.00,VWS V14.01,2013-04-06 09:20:00,
2013-04-06 04:25:00,51.0,47.9,30.02,SE,144,0.0,0.0,89,0.00,,SKC,0.00,VWS V14.01,2013-04-06 09:25:00,
2013-04-06 04:30:00,51.2,48.4,30.02,SE,144,0.0,1.0,90,0.00,,SKC,0.00,VWS V14.01,2013-04-06 09:30:00,
2013-04-06 04:35:00,51.3,48.5,30.02,SE,144,0.0,1.0,90,0.00,,SKC,0.00,VWS V14.01,2013-04-06 09:35:00,
2013-04-06 04:40:00,51.5,48.7,30.02,SE,144,0.0,2.0,90,0.00,,SKC,0.00,VWS V14.01,2013-04-06 09:40:00,
2013-04-06 04:45:00,51.7,49.2,30.01,SE,144,0.0,3.0,91,0.00,,SKC,0.00,VWS V14.01,2013-04-06 09:45:00,
2013-04-06 04:50:00,51.8,49.3,30.01,SE,144,0.0,3.0,91,0.00,,SKC,0.00,VWS V14.01,2013-04-06 09:50:00,
2013-04-06 04:51:00,52.0,49.5,30.00,SE,144,0.0,3.0,91,0.00,,SKC,0.00,VWS V14.01,2013-04-06 09:51:00,
2013-04-06 04:56:00,52.2,49.7,30.01,SE,144,0.0,3.0,91,0.00,,SKC,0.00,VWS V14.01,2013-04-06 09:56:00,
2013-04-06 05:00:00,52.2,49.7,30.01,SE,144,0.0,3.0,91,0.00,,SKC,0.00,VWS V14.01,2013-04-06 10:00:00,
2013-04-06 05:01:00,52.4,49.8,30.01,SE,144,0.0,3.0,91,0.00,,SKC,0.00,VWS V14.01,2013-04-06 10:01:00,
2013-04-06 05:06:00,52.7,50.5,30.00,SE,144,1.0,6.0,92,0.00,,SKC,0.00,VWS V14.01,2013-04-06 10:06:00,
2013-04-06 05:10:00,52.7,50.5,30.00,SE,144,0.0,6.0,92,0.00,,SKC,0.00,VWS V14.01,2013-04-06 10:10:00,
2013-04-06 05:11:00,52.9,50.6,30.01,SE,144,0.0,4.0,92,0.00,,SKC,0.00,VWS V14.01,2013-04-06 10:11:00,
2013-04-06 05:16:00,53.0,50.5,30.01,SE,144,0.0,4.0,91,0.00,,SKC,0.00,VWS V14.01,2013-04-06 10:16:00,
2013-04-06 05:20:00,53.0,50.5,30.01,SE,144,0.0,4.0,91,0.00,,SKC,0.00,VWS V14.01,2013-04-06 10:20:00,
2013-04-06 05:21:00,53.1,50.8,30.01,SE,144,0.0,5.0,92,0.00,,SKC,0.00,VWS V14.01,2013-04-06 10:21:00,
2013-04-06 05:26:00,53.3,51.0,30.01,SE,144,0.0,5.0,92,0.00,,SKC,0.00,VWS V14.01,2013-04-06 10:26:00,
2013-04-06 05:30:00,53.3,51.0,30.01,SE,144,0.0,5.0,92,0.00,,SKC,0.00,VWS V14.01,2013-04-06 10:30:00,
2013-04-06 05:31:00,53.5,51.2,30.02,SE,144,0.0,3.0,92,0.00,,SKC,0.00,VWS V14.01,2013-04-06 10:31:00,
2013-04-06 05:36:00,53.7,51.4,30.01,SE,144,2.0,2.0,92,0.00,,SKC,0.00,VWS V14.01,2013-04-06 10:36:00,
2013-04-06 05:40:00,53.7,51.4,30.01,SE,144,2.0,6.0,92,0.00,,SKC,0.00,VWS V14.01,2013-04-06 10:40:00,
2013-04-06 05:41:00,53.9,51.6,30.01,SE,144,2.0,5.0,92,0.00,,SKC,0.00,VWS V14.01,2013-04-06 10:41:00,
2013-04-06 05:46:00,54.1,51.8,30.01,SE,144,0.0,0.0,92,0.00,,SKC,0.00,VWS V14.01,2013-04-06 10:46:00,
2013-04-06 05:50:00,54.0,51.7,30.01,SE,144,0.0,5.0,92,0.00,,SKC,0.00,VWS V14.01,2013-04-06 10:50:00,
2013-04-06 05:51:00,54.2,51.9,30.01,SE,144,0.0,4.0,92,0.00,,SKC,0.00,VWS V14.01,2013-04-06 10:51:00,
2013-04-06 05:57:00,54.4,52.4,30.01,SE,144,0.0,0.0,93,0.00,,SKC,0.00,VWS V14.01,2013-04-06 10:57:00,
2013-04-06 06:00:00,54.4,52.4,30.01,SE,144,0.0,5.0,93,0.00,,SKC,0.00,VWS V14.01,2013-04-06 11:00:00,
2013-04-06 06:02:00,54.6,52.6,30.01,SE,144,5.0,6.0,93,0.00,,SKC,0.00,VWS V14.01,2013-04-06 11:02:00,
2013-04-06 06:07:00,54.8,52.8,30.01,SE,145,5.0,6.0,93,0.00,,SKC,0.00,VWS V14.01,2013-04-06 11:07:00,
2013-04-06 06:10:00,54.8,52.8,30.01,SE,145,4.0,7.0,93,0.00,,SKC,0.00,VWS V14.01,2013-04-06 11:10:00,
2013-04-06 06:12:00,54.9,52.6,30.01,SE,145,2.0,6.0,92,0.00,,SKC,0.00,VWS V14.01,2013-04-06 11:12:00,
2013-04-06 06:17:00,55.0,52.7,30.00,SE,145,0.0,2.0,92,0.00,,SKC,0.00,VWS V14.01,2013-04-06 11:17:00,
2013-04-06 06:20:00,55.0,52.7,30.00,SE,145,2.0,6.0,92,0.00,,SKC,0.00,VWS V14.01,2013-04-06 11:20:00,
2013-04-06 06:22:00,55.1,52.8,30.00,SE,145,2.0,5.0,92,0.00,,SKC,0.00,VWS V14.01,2013-04-06 11:22:00,
2013-04-06 06:27:00,55.1,52.8,30.00,SE,145,2.0,3.0,92,0.00,,SKC,0.00,VWS V14.01,2013-04-06 11:27:00,
2013-04-06 06:30:00,55.1,52.8,30.00,SE,145,0.0,7.0,92,0.00,,SKC,0.00,VWS V14.01,2013-04-06 11:30:00,
2013-04-06 06:32:00,55.2,52.9,30.00,SE,146,0.0,5.0,92,0.00,,SKC,0.00,VWS V14.01,2013-04-06 11:32:00,
2013-04-06 06:33:00,55.2,52.9,30.00,SE,146,0.0,5.0,92,0.00,,SKC,0.00,VWS V14.01,2013-04-06 11:33:00,
2013-04-06 06:38:00,55.3,53.0,30.00,SE,146,0.0,0.0,92,0.00,,SKC,0.00,VWS V14.01,2013-04-06 11:38:00,
2013-04-06 06:40:00,55.3,53.0,30.00,SE,146,0.0,5.0,92,0.00,,SKC,0.00,VWS V14.01,2013-04-06 11:40:00,
2013-04-06 06:43:00,55.4,53.1,30.00,SE,146,0.0,2.0,92,0.00,,SKC,0.00,VWS V14.01,2013-04-06 11:43:00,
2013-04-06 06:48:00,55.4,53.1,30.00,SE,146,0.0,3.0,92,0.00,,SKC,0.00,VWS V14.01,2013-04-06 11:48:00,
2013-04-06 06:50:00,55.4,53.1,30.00,SE,146,3.0,3.0,92,0.00,,SKC,0.00,VWS V14.01,2013-04-06 11:50:00,
2013-04-06 06:53:00,55.5,53.2,30.00,SE,146,0.0,4.0,92,0.00,,SKC,0.00,VWS V14.01,2013-04-06 11:53:00,
2013-04-06 06:58:00,55.6,53.3,30.00,SE,146,0.0,4.0,92,0.00,,SKC,0.00,VWS V14.01,2013-04-06 11:58:00,
2013-04-06 07:00:00,55.6,53.3,30.00,SE,146,0.0,4.0,92,0.00,,SKC,0.00,VWS V14.01,2013-04-06 12:00:00,
2013-04-06 07:03:00,55.7,53.4,30.00,SE,146,3.0,4.0,92,0.00,,SKC,0.00,VWS V14.01,2013-04-06 12:03:00,
2013-04-06 07:08:00,55.8,53.5,30.00,SE,146,0.0,3.0,92,0.00,,SKC,0.00,VWS V14.01,2013-04-06 12:08:00,
2013-04-06 07:10:00,55.8,53.5,30.00,SE,146,3.0,5.0,92,0.00,,SKC,0.00,VWS V14.01,2013-04-06 12:10:00,
2013-04-06 07:13:00,55.8,53.5,30.00,SE,146,0.0,3.0,92,0.00,,SKC,0.00,VWS V14.01,2013-04-06 12:13:00,
2013-04-06 07:18:00,55.9,53.6,30.00,SE,146,0.0,0.0,92,0.00,,SKC,0.00,VWS V14.01,2013-04-06 12:18:00,
2013-04-06 07:20:00,55.9,53.6,30.00,SE,146,0.0,3.0,92,0.00,,SKC,0.00,VWS V14.01,2013-04-06 12:20:00,
2013-04-06 07:23:00,55.9,53.6,30.01,SE,146,0.0,1.0,92,0.00,,SKC,0.00,VWS V14.01,2013-04-06 12:23:00,
2013-04-06 07:28:00,55.9,53.6,30.01,SE,146,0.0,3.0,92,0.00,,SKC,0.00,VWS V14.01,2013-04-06 12:28:00,
2013-04-06 07:30:00,55.9,53.6,30.01,SE,146,0.0,1.0,92,0.00,,SKC,0.00,VWS V14.01,2013-04-06 12:30:00,
2013-04-06 07:33:00,55.9,53.6,30.01,SE,146,0.0,4.0,92,0.00,,SKC,0.00,VWS V14.01,2013-04-06 12:33:00,
2013-04-06 07:38:00,56.0,53.7,30.01,SE,146,0.0,4.0,92,0.00,,SKC,0.00,VWS V14.01,2013-04-06 12:38:00,
2013-04-06 07:40:00,56.0,53.7,30.01,SE,146,0.0,4.0,92,0.00,,SKC,0.00,VWS V14.01,2013-04-06 12:40:00,
2013-04-06 07:43:00,56.0,53.7,30.01,SE,146,0.0,4.0,92,0.00,,SKC,0.00,VWS V14.01,2013-04-06 12:43:00,
2013-04-06 07:48:00,56.0,53.4,30.01,SE,146,0.0,0.0,91,0.00,,SKC,0.00,VWS V14.01,2013-04-06 12:48:00,
2013-04-06 07:50:00,56.0,53.7,30.01,SE,146,0.0,4.0,92,0.00,,SKC,0.00,VWS V14.01,2013-04-06 12:50:00,
2013-04-06 07:53:00,56.1,53.8,30.01,SE,146,0.0,3.0,92,0.00,,SKC,0.00,VWS V14.01,2013-04-06 12:53:00,
2013-04-06 07:58:00,56.1,53.8,30.01,SE,146,4.0,4.0,92,0.00,,SKC,0.00,VWS V14.01,2013-04-06 12:58:00,
2013-04-06 08:00:00,56.1,53.8,30.00,SE,146,0.0,7.0,92,0.00,,SKC,0.00,VWS V14.01,2013-04-06 13:00:00,
2013-04-06 08:03:00,56.2,53.9,30.01,SE,146,2.0,4.0,92,0.00,,SKC,0.00,VWS V14.01,2013-04-06 13:03:00,
2013-04-06 08:08:00,56.2,53.9,30.02,SE,146,0.0,0.0,92,0.00,,SKC,0.00,VWS V14.01,2013-04-06 13:08:00,
2013-04-06 08:10:00,56.2,53.9,30.01,SE,146,0.0,4.0,92,0.00,,SKC,0.00,VWS V14.01,2013-04-06 13:10:00,
2013-04-06 08:13:00,56.3,54.0,30.02,SE,146,0.0,3.0,92,0.00,,SKC,0.00,VWS V14.01,2013-04-06 13:13:00,
2013-04-06 08:18:00,56.4,53.8,30.02,SE,146,0.0,0.0,91,0.00,,SKC,0.00,VWS V14.01,2013-04-06 13:18:00,
2013-04-06 08:20:00,56.4,54.1,30.01,SE,146,0.0,3.0,92,0.00,,SKC,0.00,VWS V14.01,2013-04-06 13:20:00,
2013-04-06 08:23:00,56.6,54.0,30.02,SE,146,5.0,5.0,91,0.00,,SKC,0.00,VWS V14.01,2013-04-06 13:23:00,
2013-04-06 08:28:00,56.7,54.1,30.02,SE,146,0.0,0.0,91,0.00,,SKC,0.00,VWS V14.01,2013-04-06 13:28:00,
2013-04-06 08:30:00,56.7,54.1,30.02,SE,146,0.0,5.0,91,0.00,,SKC,0.00,VWS V14.01,2013-04-06 13:30:00,
2013-04-06 08:33:00,56.8,54.2,30.02,SE,146,0.0,1.0,91,0.00,,SKC,0.00,VWS V14.01,2013-04-06 13:33:00,
2013-04-06 08:38:00,57.0,54.4,30.02,SE,146,4.0,4.0,91,0.00,,SKC,0.00,VWS V14.01,2013-04-06 13:38:00,
2013-04-06 08:40:00,56.9,54.3,30.02,SE,146,0.0,1.0,91,0.00,,SKC,0.00,VWS V14.01,2013-04-06 13:40:00,
2013-04-06 08:43:00,57.1,54.5,30.03,SE,146,0.0,4.0,91,0.00,,SKC,0.00,VWS V14.01,2013-04-06 13:43:00,
2013-04-06 08:48:00,57.2,54.6,30.03,SE,146,0.0,0.0,91,0.00,,SKC,0.00,VWS V14.01,2013-04-06 13:48:00,
2013-04-06 08:50:00,57.2,54.6,30.03,SE,146,0.0,4.0,91,0.00,,SKC,0.00,VWS V14.01,2013-04-06 13:50:00,
2013-04-06 08:53:00,57.3,54.7,30.03,SE,146,0.0,4.0,91,0.00,,SKC,0.00,VWS V14.01,2013-04-06 13:53:00,
2013-04-06 08:58:00,57.5,54.9,30.02,SE,146,0.0,1.0,91,0.00,,SKC,0.00,VWS V14.01,2013-04-06 13:58:00,
2013-04-06 09:00:00,57.4,54.8,30.02,SE,146,0.0,4.0,91,0.00,,SKC,0.00,VWS V14.01,2013-04-06 14:00:00,
2013-04-06 09:03:00,57.7,55.1,30.03,SE,146,0.0,5.0,91,0.00,,SKC,0.00,VWS V14.01,2013-04-06 14:03:00,
2013-04-06 09:08:00,58.0,55.4,30.03,SE,146,0.0,1.0,91,0.00,,SKC,0.00,VWS V14.01,2013-04-06 14:08:00,
2013-04-06 09:10:00,57.9,55.3,30.03,SE,146,0.0,5.0,91,0.00,,SKC,0.00,VWS V14.01,2013-04-06 14:10:00,
2013-04-06 09:13:00,58.4,55.5,30.03,SE,146,0.0,5.0,90,0.00,,SKC,0.00,VWS V14.01,2013-04-06 14:13:00,
2013-04-06 09:18:00,58.8,55.9,30.03,SE,146,0.0,4.0,90,0.00,,SKC,0.00,VWS V14.01,2013-04-06 14:18:00,
2013-04-06 09:20:00,58.6,55.7,30.03,SE,146,0.0,5.0,90,0.00,,SKC,0.00,VWS V14.01,2013-04-06 14:20:00,
2013-04-06 09:23:00,59.1,55.9,30.03,SE,146,2.0,5.0,89,0.00,,SKC,0.00,VWS V14.01,2013-04-06 14:23:00,
2013-04-06 09:28:00,59.5,56.3,30.03,SE,146,4.0,7.0,89,0.00,,SKC,0.00,VWS V14.01,2013-04-06 14:28:00,
2013-04-06 09:30:00,59.4,56.2,30.03,SE,146,0.0,5.0,89,0.00,,SKC,0.00,VWS V14.01,2013-04-06 14:30:00,
2013-04-06 09:33:00,59.8,55.9,30.03,SE,146,2.0,7.0,87,0.00,,SKC,0.00,VWS V14.01,2013-04-06 14:33:00,
2013-04-06 09:38:00,60.1,56.2,30.03,SE,146,2.0,5.0,87,0.00,,SKC,0.00,VWS V14.01,2013-04-06 14:38:00,
2013-04-06 09:40:00,60.0,56.1,30.03,SE,146,2.0,7.0,87,0.00,,SKC,0.00,VWS V14.01,2013-04-06 14:40:00,
2013-04-06 09:43:00,60.5,56.6,30.03,SE,146,5.0,8.0,87,0.00,,SKC,0.00,VWS V14.01,2013-04-06 14:43:00,
2013-04-06 09:48:00,60.8,56.3,30.03,SSE,148,1.0,4.0,85,0.00,,SKC,0.00,VWS V14.01,2013-04-06 14:48:00,
2013-04-06 09:50:00,60.7,56.5,30.03,SSE,148,4.0,8.0,86,0.00,,SKC,0.00,VWS V14.01,2013-04-06 14:50:00,
2013-04-06 10:00:00,57.4,54.8,30.02,SE,146,0.0,4.0,91,0.00,,SKC,0.00,VWS V14.01,2013-04-06 15:00:00,
2013-04-06 10:04:00,61.7,56.5,30.03,SSE,159,2.0,2.0,83,0.00,,SKC,0.00,VWS V14.01,2013-04-06 15:04:00,
2013-04-06 10:09:00,62.1,56.9,30.02,SSE,160,3.0,7.0,83,0.00,,SKC,0.00,VWS V14.01,2013-04-06 15:09:00,
2013-04-06 10:10:00,61.9,57.0,30.02,SSE,159,2.0,7.0,84,0.00,,SKC,0.00,VWS V14.01,2013-04-06 15:10:00,
2013-04-06 10:14:00,62.6,57.0,30.02,SSE,163,3.0,10.0,82,0.00,,SKC,0.00,VWS V14.01,2013-04-06 15:14:00,
2013-04-06 10:19:00,63.0,57.1,30.02,SSE,162,0.0,6.0,81,0.00,,SKC,0.00,VWS V14.01,2013-04-06 15:19:00,
2013-04-06 10:20:00,62.8,57.2,30.02,SSE,162,2.0,10.0,82,0.00,,SKC,0.00,VWS V14.01,2013-04-06 15:20:00,
2013-04-06 10:24:00,63.6,57.3,30.02,SSE,166,0.0,10.0,80,0.00,,SKC,0.00,VWS V14.01,2013-04-06 15:24:00,
2013-04-06 10:29:00,64.2,57.6,30.02,SSE,166,2.0,7.0,79,0.00,,SKC,0.00,VWS V14.01,2013-04-06 15:29:00,
2013-04-06 10:30:00,63.9,57.6,30.02,SSE,166,0.0,11.0,80,0.00,,SKC,0.00,VWS V14.01,2013-04-06 15:30:00,
2013-04-06 10:34:00,64.6,57.2,30.01,South,173,5.0,12.0,77,0.00,,SKC,0.00,VWS V14.01,2013-04-06 15:34:00,
2013-04-06 10:39:00,64.9,57.5,30.02,SSW,192,3.0,9.0,77,0.00,,SKC,0.00,VWS V14.01,2013-04-06 15:39:00,
2013-04-06 10:40:00,64.7,57.0,30.01,South,190,4.0,12.0,76,0.00,,SKC,0.00,VWS V14.01,2013-04-06 15:40:00,
2013-04-06 10:44:00,65.6,57.8,30.02,SSW,192,3.0,9.0,76,0.00,,SKC,0.00,VWS V14.01,2013-04-06 15:44:00,
2013-04-06 10:49:00,66.5,58.3,30.01,SSW,194,0.0,7.0,75,0.00,,SKC,0.00,VWS V14.01,2013-04-06 15:49:00,
2013-04-06 10:50:00,65.9,57.8,30.02,SSW,195,4.0,10.0,75,0.00,,SKC,0.00,VWS V14.01,2013-04-06 15:50:00,
2013-04-06 10:54:00,66.9,57.6,30.01,SSE,163,7.0,10.0,72,0.00,,SKC,0.00,VWS V14.01,2013-04-06 15:54:00,
2013-04-06 10:59:00,67.1,57.4,30.01,South,179,4.0,12.0,71,0.00,,SKC,0.00,VWS V14.01,2013-04-06 15:59:00,
2013-04-06 11:00:00,67.0,57.7,30.01,South,172,5.0,14.0,72,0.00,,SKC,0.00,VWS V14.01,2013-04-06 16:00:00,
2013-04-06 11:04:00,67.5,57.4,30.00,South,178,4.0,12.0,70,0.00,,SKC,0.00,VWS V14.01,2013-04-06 16:04:00,
2013-04-06 11:09:00,67.8,57.3,30.00,SSE,165,2.0,16.0,69,0.00,,SKC,0.00,VWS V14.01,2013-04-06 16:09:00,
2013-04-06 11:10:00,67.6,57.1,30.00,SSE,165,7.0,12.0,69,0.00,,SKC,0.00,VWS V14.01,2013-04-06 16:10:00,
2013-04-06 11:14:00,68.2,57.2,30.00,SSE,167,4.0,16.0,68,0.00,,SKC,0.00,VWS V14.01,2013-04-06 16:14:00,
2013-04-06 11:19:00,68.6,57.6,30.01,SE,136,4.0,11.0,68,0.00,,SKC,0.00,VWS V14.01,2013-04-06 16:19:00,
2013-04-06 11:20:00,68.3,57.3,30.00,South,188,4.0,16.0,68,0.00,,SKC,0.00,VWS V14.01,2013-04-06 16:20:00,
2013-04-06 11:24:00,69.2,58.2,30.00,SSE,165,2.0,13.0,68,0.00,,SKC,0.00,VWS V14.01,2013-04-06 16:24:00,
2013-04-06 11:29:00,69.7,57.8,30.00,SSE,161,5.0,10.0,66,0.00,,SKC,0.00,VWS V14.01,2013-04-06 16:29:00,
2013-04-06 11:30:00,69.3,57.9,30.01,SSE,159,3.0,13.0,67,0.00,,SKC,0.00,VWS V14.01,2013-04-06 16:30:00,
2013-04-06 11:34:00,70.4,58.5,30.00,SSE,167,0.0,10.0,66,0.00,,SKC,0.00,VWS V14.01,2013-04-06 16:34:00,
2013-04-06 11:39:00,71.1,58.3,30.00,SSE,159,2.0,10.0,64,0.00,,SKC,0.00,VWS V14.01,2013-04-06 16:39:00,
2013-04-06 11:40:00,70.7,58.4,30.00,SSE,156,3.0,10.0,65,0.00,,SKC,0.00,VWS V14.01,2013-04-06 16:40:00,
2013-04-06 11:44:00,71.3,58.5,30.00,SSE,157,3.0,12.0,64,0.00,,SKC,0.00,VWS V14.01,2013-04-06 16:44:00,
2013-04-06 11:49:00,71.8,58.5,30.00,South,188,4.0,11.0,63,0.00,,SKC,0.00,VWS V14.01,2013-04-06 16:49:00,
2013-04-06 11:50:00,71.5,58.3,30.00,SSE,159,3.0,12.0,63,0.00,,SKC,0.00,VWS V14.01,2013-04-06 16:50:00,
2013-04-06 11:54:00,72.2,58.5,30.00,SSE,165,3.0,11.0,62,0.00,,SKC,0.00,VWS V14.01,2013-04-06 16:54:00,
2013-04-06 12:00:00,72.5,57.8,30.00,SSE,163,5.0,9.0,60,0.00,,SKC,0.00,VWS V14.01,2013-04-06 17:00:00,
2013-04-06 12:05:00,72.7,57.6,30.00,South,171,1.0,10.0,59,0.00,,SKC,0.00,VWS V14.01,2013-04-06 17:05:00,
2013-04-06 12:10:00,73.0,57.8,30.00,SSW,203,7.0,8.0,59,0.00,,SKC,0.00,VWS V14.01,2013-04-06 17:10:00,
2013-04-06 12:15:00,73.1,57.0,30.00,SSW,197,3.0,17.0,57,0.00,,SKC,0.00,VWS V14.01,2013-04-06 17:15:00,
2013-04-06 12:20:00,73.1,57.5,29.99,South,186,2.0,8.0,58,0.00,,SKC,0.00,VWS V14.01,2013-04-06 17:20:00,
2013-04-06 12:25:00,73.3,57.2,29.99,SSW,211,6.0,13.0,57,0.00,,SKC,0.00,VWS V14.01,2013-04-06 17:25:00,
2013-04-06 12:30:00,73.5,57.3,29.99,SSW,213,3.0,12.0,57,0.00,,SKC,0.00,VWS V14.01,2013-04-06 17:30:00,
2013-04-06 12:35:00,73.8,57.1,29.99,SW,230,2.0,12.0,56,0.00,,SKC,0.00,VWS V14.01,2013-04-06 17:35:00,
2013-04-06 12:40:00,74.2,57.0,29.99,SSW,207,6.0,10.0,55,0.00,,SKC,0.00,VWS V14.01,2013-04-06 17:40:00,
2013-04-06 12:45:00,74.4,57.2,29.98,South,188,5.0,10.0,55,0.00,,SKC,0.00,VWS V14.01,2013-04-06 17:45:00,
2013-04-06 12:50:00,75.0,56.7,29.98,South,169,2.0,11.0,53,0.00,,SKC,0.00,VWS V14.01,2013-04-06 17:50:00,
2013-04-06 12:55:00,75.3,57.0,29.97,South,182,1.0,14.0,53,0.00,,SKC,0.00,VWS V14.01,2013-04-06 17:55:00,
2013-04-06 13:00:00,75.3,57.0,29.97,SSW,196,0.0,11.0,53,0.00,,SKC,0.00,VWS V14.01,2013-04-06 18:00:00,
2013-04-06 13:05:00,75.7,57.9,29.97,South,187,3.0,11.0,54,0.00,,SKC,0.00,VWS V14.01,2013-04-06 18:05:00,
2013-04-06 13:10:00,75.9,57.6,29.97,SSW,202,4.0,10.0,53,0.00,,SKC,0.00,VWS V14.01,2013-04-06 18:10:00,
2013-04-06 13:15:00,76.0,57.7,29.96,South,190,5.0,14.0,53,0.00,,SKC,0.00,VWS V14.01,2013-04-06 18:15:00,
2013-04-06 13:20:00,76.2,57.3,29.95,SSW,199,4.0,8.0,52,0.00,,SKC,0.00,VWS V14.01,2013-04-06 18:20:00,
2013-04-06 13:25:00,76.2,57.8,29.95,SSE,162,5.0,18.0,53,0.00,,SKC,0.00,VWS V14.01,2013-04-06 18:25:00,
2013-04-06 13:30:00,76.3,57.9,29.95,SSW,205,1.0,12.0,53,0.00,,SKC,0.00,VWS V14.01,2013-04-06 18:30:00,
2013-04-06 13:35:00,76.5,58.1,29.95,South,182,4.0,12.0,53,0.00,,SKC,0.00,VWS V14.01,2013-04-06 18:35:00,
2013-04-06 13:40:00,77.1,58.7,29.95,SSW,202,3.0,15.0,53,0.00,,SKC,0.00,VWS V14.01,2013-04-06 18:40:00,
2013-04-06 13:45:00,77.2,58.2,29.95,South,175,3.0,17.0,52,0.00,,SKC,0.00,VWS V14.01,2013-04-06 18:45:00,
2013-04-06 13:50:00,77.1,58.7,29.94,SSW,209,5.0,11.0,53,0.00,,SKC,0.00,VWS V14.01,2013-04-06 18:50:00,
2013-04-06 13:55:00,77.1,58.7,29.94,SSW,202,3.0,16.0,53,0.00,,SKC,0.00,VWS V14.01,2013-04-06 18:55:00,
2013-04-06 14:00:00,77.2,58.8,29.94,South,190,4.0,8.0,53,0.00,,SKC,0.00,VWS V14.01,2013-04-06 19:00:00,
2013-04-06 14:05:00,77.6,59.7,29.94,SSW,201,5.0,9.0,54,0.00,,SKC,0.00,VWS V14.01,2013-04-06 19:05:00,
2013-04-06 14:10:00,77.8,58.8,29.94,SSW,213,4.0,13.0,52,0.00,,SKC,0.00,VWS V14.01,2013-04-06 19:10:00,
2013-04-06 14:15:00,77.7,58.7,29.93,SSE,161,1.0,13.0,52,0.00,,SKC,0.00,VWS V14.01,2013-04-06 19:15:00,
2013-04-06 14:20:00,77.8,59.3,29.93,SSW,194,1.0,10.0,53,0.00,,SKC,0.00,VWS V14.01,2013-04-06 19:20:00,
2013-04-06 14:25:00,78.3,58.7,29.93,SSW,192,3.0,11.0,51,0.00,,SKC,0.00,VWS V14.01,2013-04-06 19:25:00,
2013-04-06 14:30:00,78.5,58.9,29.92,SSW,209,1.0,16.0,51,0.00,,SKC,0.00,VWS V14.01,2013-04-06 19:30:00,
2013-04-06 14:35:00,78.6,58.4,29.92,South,183,0.0,16.0,50,0.00,,SKC,0.00,VWS V14.01,2013-04-06 19:35:00,
2013-04-06 14:40:00,78.9,58.7,29.92,South,169,0.0,8.0,50,0.00,,SKC,0.00,VWS V14.01,2013-04-06 19:40:00,
2013-04-06 14:45:00,79.2,59.0,29.92,South,172,1.0,8.0,50,0.00,,SKC,0.00,VWS V14.01,2013-04-06 19:45:00,
2013-04-06 14:50:00,79.4,59.2,29.91,SW,221,2.0,12.0,50,0.00,,SKC,0.00,VWS V14.01,2013-04-06 19:50:00,
2013-04-06 14:55:00,79.7,58.9,29.91,SSE,168,5.0,12.0,49,0.00,,SKC,0.00,VWS V14.01,2013-04-06 19:55:00,
2013-04-06 15:00:00,80.0,59.1,29.91,South,181,0.0,8.0,49,0.00,,SKC,0.00,VWS V14.01,2013-04-06 20:00:00,
2013-04-06 15:05:00,80.2,59.3,29.90,SSE,154,0.0,11.0,49,0.00,,SKC,0.00,VWS V14.01,2013-04-06 20:05:00,
2013-04-06 15:10:00,80.3,58.8,29.90,SSE,162,0.0,9.0,48,0.00,,SKC,0.00,VWS V14.01,2013-04-06 20:10:00,
2013-04-06 15:15:00,80.3,58.8,29.89,South,175,0.0,11.0,48,0.00,,SKC,0.00,VWS V14.01,2013-04-06 20:15:00,
2013-04-06 15:20:00,80.3,59.4,29.89,South,183,1.0,10.0,49,0.00,,SKC,0.00,VWS V14.01,2013-04-06 20:20:00,
2013-04-06 15:25:00,80.4,58.9,29.89,SE,144,0.0,10.0,48,0.00,,SKC,0.00,VWS V14.01,2013-04-06 20:25:00,
2013-04-06 15:30:00,80.3,58.8,29.89,South,175,2.0,10.0,48,0.00,,SKC,0.00,VWS V14.01,2013-04-06 20:30:00,
2013-04-06 15:35:00,80.4,58.9,29.89,South,171,1.0,10.0,48,0.00,,SKC,0.00,VWS V14.01,2013-04-06 20:35:00,
2013-04-06 15:40:00,80.6,59.1,29.88,SSE,166,3.0,7.0,48,0.00,,SKC,0.00,VWS V14.01,2013-04-06 20:40:00,
2013-04-06 15:45:00,80.9,59.4,29.88,SSW,192,6.0,9.0,48,0.00,,SKC,0.00,VWS V14.01,2013-04-06 20:45:00,
2013-04-06 15:50:00,81.2,59.7,29.88,SSE,158,10.0,11.0,48,0.00,,SKC,0.00,VWS V14.01,2013-04-06 20:50:00,
2013-04-06 15:55:00,81.4,58.7,29.87,SSE,157,1.0,11.0,46,0.00,,SKC,0.00,VWS V14.01,2013-04-06 20:55:00,
2013-04-06 16:00:00,81.4,59.3,29.87,South,171,5.0,9.0,47,0.00,,SKC,0.00,VWS V14.01,2013-04-06 21:00:00,
2013-04-06 16:05:00,81.5,59.3,29.87,South,186,1.0,9.0,47,0.00,,SKC,0.00,VWS V14.01,2013-04-06 21:05:00,
2013-04-06 16:10:00,81.4,59.3,29.86,SSE,147,0.0,12.0,47,0.00,,SKC,0.00,VWS V14.01,2013-04-06 21:10:00,
2013-04-06 16:15:00,81.5,58.8,29.86,SSE,159,0.0,14.0,46,0.00,,SKC,0.00,VWS V14.01,2013-04-06 21:15:00,
2013-04-06 16:20:00,81.5,58.8,29.86,SSE,150,3.0,12.0,46,0.00,,SKC,0.00,VWS V14.01,2013-04-06 21:20:00,
2013-04-06 16:25:00,81.6,59.4,29.86,SSW,197,4.0,12.0,47,0.00,,SKC,0.00,VWS V14.01,2013-04-06 21:25:00,
2013-04-06 16:30:00,81.6,58.8,29.85,SSE,163,3.0,5.0,46,0.00,,SKC,0.00,VWS V14.01,2013-04-06 21:30:00,
2013-04-06 16:35:00,81.8,59.0,29.85,SSE,160,0.0,15.0,46,0.00,,SKC,0.00,VWS V14.01,2013-04-06 21:35:00,
2013-04-06 16:40:00,81.9,58.5,29.86,SSE,164,11.0,15.0,45,0.00,,SKC,0.00,VWS V14.01,2013-04-06 21:40:00,
2013-04-06 16:45:00,81.7,58.3,29.85,South,171,10.0,15.0,45,0.00,,SKC,0.00,VWS V14.01,2013-04-06 21:45:00,
2013-04-06 16:50:00,81.7,58.3,29.85,South,173,5.0,15.0,45,0.00,,SKC,0.00,VWS V14.01,2013-04-06 21:50:00,
2013-04-06 16:51:00,81.6,58.2,29.85,SSE,167,0.0,13.0,45,0.00,,SKC,0.00,VWS V14.01,2013-04-06 21:51:00,
2013-04-06 16:56:00,81.6,58.2,29.85,SSW,210,0.0,13.0,45,0.00,,SKC,0.00,VWS V14.01,2013-04-06 21:56:00,
2013-04-06 17:00:00,81.7,58.3,29.85,SSW,209,2.0,13.0,45,0.00,,SKC,0.00,VWS V14.01,2013-04-06 22:00:00,
2013-04-06 17:01:00,81.7,57.7,29.85,SSW,204,0.0,13.0,44,0.00,,SKC,0.00,VWS V14.01,2013-04-06 22:01:00,
2013-04-06 17:06:00,81.9,58.5,29.84,SSW,207,7.0,13.0,45,0.00,,SKC,0.00,VWS V14.01,2013-04-06 22:06:00,
2013-04-06 17:10:00,82.0,58.6,29.84,SSE,156,7.0,13.0,45,0.00,,SKC,0.00,VWS V14.01,2013-04-06 22:10:00,
2013-04-06 17:11:00,82.1,58.0,29.84,South,187,0.0,10.0,44,0.00,,SKC,0.00,VWS V14.01,2013-04-06 22:11:00,
2013-04-06 17:16:00,82.2,58.1,29.84,SSE,162,0.0,11.0,44,0.00,,SKC,0.00,VWS V14.01,2013-04-06 22:16:00,
2013-04-06 17:20:00,82.2,58.1,29.84,SSE,165,0.0,11.0,44,0.00,,SKC,0.00,VWS V14.01,2013-04-06 22:20:00,
2013-04-06 17:21:00,82.2,58.1,29.84,South,185,0.0,12.0,44,0.00,,SKC,0.00,VWS V14.01,2013-04-06 22:21:00,
2013-04-06 17:26:00,82.1,58.0,29.84,South,169,0.0,12.0,44,0.00,,SKC,0.00,VWS V14.01,2013-04-06 22:26:00,
2013-04-06 17:30:00,82.1,58.0,29.84,South,169,0.0,12.0,44,0.00,,SKC,0.00,VWS V14.01,2013-04-06 22:30:00,
2013-04-06 17:31:00,82.3,58.2,29.84,SSE,163,2.0,10.0,44,0.00,,SKC,0.00,VWS V14.01,2013-04-06 22:31:00,
2013-04-06 17:36:00,82.3,58.2,29.84,South,171,1.0,10.0,44,0.00,,SKC,0.00,VWS V14.01,2013-04-06 22:36:00,
2013-04-06 17:40:00,82.3,58.2,29.84,South,171,0.0,10.0,44,0.00,,SKC,0.00,VWS V14.01,2013-04-06 22:40:00,
2013-04-06 17:41:00,82.4,58.3,29.84,SSE,165,0.0,12.0,44,0.00,,SKC,0.00,VWS V14.01,2013-04-06 22:41:00,
2013-04-06 17:46:00,82.5,58.4,29.84,SSE,163,1.0,12.0,44,0.00,,SKC,0.00,VWS V14.01,2013-04-06 22:46:00,
2013-04-06 17:50:00,82.5,58.4,29.84,SSE,153,5.0,12.0,44,0.00,,SKC,0.00,VWS V14.01,2013-04-06 22:50:00,
2013-04-06 17:51:00,82.3,58.2,29.84,SSE,168,1.0,5.0,44,0.00,,SKC,0.00,VWS V14.01,2013-04-06 22:51:00,
2013-04-06 17:56:00,82.1,58.0,29.84,South,182,0.0,12.0,44,0.00,,SKC,0.00,VWS V14.01,2013-04-06 22:56:00,
2013-04-06 18:00:00,82.1,58.0,29.84,South,182,0.0,12.0,44,0.00,,SKC,0.00,VWS V14.01,2013-04-06 23:00:00,
2013-04-06 18:01:00,81.9,58.5,29.83,SSW,192,0.0,5.0,45,0.00,,SKC,0.00,VWS V14.01,2013-04-06 23:01:00,
2013-04-06 18:06:00,81.6,58.2,29.83,SSW,200,1.0,8.0,45,0.00,,SKC,0.00,VWS V14.01,2013-04-06 23:06:00,
2013-04-06 18:10:00,81.6,58.2,29.83,SSW,200,0.0,8.0,45,0.00,,SKC,0.00,VWS V14.01,2013-04-06 23:10:00,
2013-04-06 18:11:00,81.4,58.0,29.83,SSW,192,3.0,7.0,45,0.00,,SKC,0.00,VWS V14.01,2013-04-06 23:11:00,
2013-04-06 18:16:00,81.2,57.9,29.83,SSW,193,0.0,7.0,45,0.00,,SKC,0.00,VWS V14.01,2013-04-06 23:16:00,
2013-04-06 18:20:00,81.2,57.9,29.83,SSW,192,0.0,7.0,45,0.00,,SKC,0.00,VWS V14.01,2013-04-06 23:20:00,
2013-04-06 18:21:00,81.1,58.4,29.83,SSE,163,4.0,8.0,46,0.00,,SKC,0.00,VWS V14.01,2013-04-06 23:21:00,
2013-04-06 18:26:00,81.0,58.3,29.83,SSE,156,1.0,10.0,46,0.00,,SKC,0.00,VWS V14.01,2013-04-06 23:26:00,
2013-04-06 18:30:00,80.9,58.2,29.83,SSE,157,1.0,10.0,46,0.00,,SKC,0.00,VWS V14.01,2013-04-06 23:30:00,
2013-04-06 18:31:00,80.9,58.2,29.83,SSE,165,3.0,8.0,46,0.00,,SKC,0.00,VWS V14.01,2013-04-06 23:31:00,
2013-04-06 18:36:00,80.7,58.6,29.83,SSE,161,1.0,9.0,47,0.00,,SKC,0.00,VWS V14.01,2013-04-06 23:36:00,
2013-04-06 18:40:00,80.7,58.6,29.83,SSE,161,0.0,9.0,47,0.00,,SKC,0.00,VWS V14.01,2013-04-06 23:40:00,
2013-04-06 18:41:00,80.6,57.9,29.83,SSE,159,8.0,9.0,46,0.00,,SKC,0.00,VWS V14.01,2013-04-06 23:41:00,
2013-04-06 18:46:00,80.4,57.8,29.83,SSE,167,2.0,9.0,46,0.00,,SKC,0.00,VWS V14.01,2013-04-06 23:46:00,
2013-04-06 18:50:00,80.3,57.7,29.83,SSE,165,0.0,9.0,46,0.00,,SKC,0.00,VWS V14.01,2013-04-06 23:50:00,
2013-04-06 18:51:00,80.2,57.6,29.83,SSE,167,2.0,6.0,46,0.00,,SKC,0.00,VWS V14.01,2013-04-06 23:51:00,
2013-04-06 18:56:00,80.0,58.0,29.83,SSE,163,0.0,7.0,47,0.00,,SKC,0.00,VWS V14.01,2013-04-06 23:56:00,
2013-04-06 19:00:00,79.8,57.8,29.83,SSE,163,0.0,7.0,47,0.00,,SKC,0.00,VWS V14.01,2013-04-07 00:00:00,
2013-04-06 19:06:00,79.5,58.7,29.83,SSE,159,0.0,11.0,49,0.00,,SKC,0.00,VWS V14.01,2013-04-07 00:06:00,
2013-04-06 19:10:00,79.4,58.6,29.83,SSE,157,0.0,11.0,49,0.00,,SKC,0.00,VWS V14.01,2013-04-07 00:10:00,
2013-04-06 19:11:00,79.0,58.8,29.83,SSE,150,0.0,4.0,50,0.00,,SKC,0.00,VWS V14.01,2013-04-07 00:11:00,
2013-04-06 19:16:00,78.5,58.3,29.83,SSE,159,8.0,10.0,50,0.00,,SKC,0.00,VWS V14.01,2013-04-07 00:16:00,
2013-04-06 19:20:00,78.4,58.2,29.83,SSE,159,3.0,10.0,50,0.00,,SKC,0.00,VWS V14.01,2013-04-07 00:20:00,
2013-04-06 19:21:00,78.1,58.5,29.83,SSE,159,0.0,9.0,51,0.00,,SKC,0.00,VWS V14.01,2013-04-07 00:21:00,
2013-04-06 19:26:00,77.7,58.7,29.83,SSE,157,1.0,9.0,52,0.00,,SKC,0.00,VWS V14.01,2013-04-07 00:26:00,
2013-04-06 19:30:00,77.7,58.7,29.83,SSE,157,1.0,9.0,52,0.00,,SKC,0.00,VWS V14.01,2013-04-07 00:30:00,
2013-04-06 19:31:00,77.3,58.3,29.84,SSE,153,0.0,5.0,52,0.00,,SKC,0.00,VWS V14.01,2013-04-07 00:31:00,
2013-04-06 19:36:00,77.0,58.6,29.84,SSE,153,0.0,5.0,53,0.00,,SKC,0.00,VWS V14.01,2013-04-07 00:36:00,
2013-04-06 19:40:00,77.0,58.6,29.84,SSE,153,0.0,5.0,53,0.00,,SKC,0.00,VWS V14.01,2013-04-07 00:40:00,
2013-04-06 19:41:00,76.5,58.6,29.84,SSE,158,0.0,8.0,54,0.00,,SKC,0.00,VWS V14.01,2013-04-07 00:41:00,
2013-04-06 19:47:00,76.1,58.8,29.84,SSE,157,0.0,0.0,55,0.00,,SKC,0.00,VWS V14.01,2013-04-07 00:47:00,
2013-04-06 19:50:00,76.1,58.8,29.84,SSE,158,0.0,8.0,55,0.00,,SKC,0.00,VWS V14.01,2013-04-07 00:50:00,
2013-04-06 19:52:00,75.7,58.9,29.84,SSE,156,0.0,3.0,56,0.00,,SKC,0.00,VWS V14.01,2013-04-07 00:52:00,
2013-04-06 19:57:00,75.4,58.6,29.84,SSE,153,0.0,1.0,56,0.00,,SKC,0.00,VWS V14.01,2013-04-07 00:57:00,
2013-04-06 20:00:00,75.4,58.6,29.84,SSE,154,0.0,6.0,56,0.00,,SKC,0.00,VWS V14.01,2013-04-07 01:00:00,
2013-04-06 20:02:00,75.0,58.8,29.84,SSE,154,0.0,1.0,57,0.00,,SKC,0.00,VWS V14.01,2013-04-07 01:02:00,
2013-04-06 20:07:00,74.6,58.9,29.84,SSE,154,3.0,7.0,58,0.00,,SKC,0.00,VWS V14.01,2013-04-07 01:07:00,
2013-04-06 20:10:00,74.6,58.9,29.84,SSE,153,0.0,1.0,58,0.00,,SKC,0.00,VWS V14.01,2013-04-07 01:10:00,
2013-04-06 20:12:00,74.2,59.0,29.85,SSE,154,0.0,7.0,59,0.00,,SKC,0.00,VWS V14.01,2013-04-07 01:12:00,
2013-04-06 20:17:00,73.9,58.7,29.85,SSE,154,0.0,0.0,59,0.00,,SKC,0.00,VWS V14.01,2013-04-07 01:17:00,
2013-04-06 20:20:00,73.9,58.7,29.85,SSE,154,0.0,7.0,59,0.00,,SKC,0.00,VWS V14.01,2013-04-07 01:20:00,
2013-04-06 20:22:00,73.5,58.8,29.85,SSE,154,0.0,0.0,60,0.00,,SKC,0.00,VWS V14.01,2013-04-07 01:22:00,
2013-04-06 20:27:00,73.2,58.5,29.85,SSE,154,0.0,2.0,60,0.00,,SKC,0.00,VWS V14.01,2013-04-07 01:27:00,
2013-04-06 20:30:00,73.3,58.6,29.85,SSE,154,0.0,0.0,60,0.00,,SKC,0.00,VWS V14.01,2013-04-07 01:30:00,
2013-04-06 20:32:00,72.9,58.7,29.86,SSE,157,0.0,8.0,61,0.00,,SKC,0.00,VWS V14.01,2013-04-07 01:32:00,
2013-04-06 20:37:00,72.5,58.3,29.85,SSE,153,0.0,4.0,61,0.00,,SKC,0.00,VWS V14.01,2013-04-07 01:37:00,
2013-04-06 20:40:00,72.6,58.4,29.85,SSE,154,0.0,8.0,61,0.00,,SKC,0.00,VWS V14.01,2013-04-07 01:40:00,
2013-04-06 20:42:00,72.2,58.0,29.86,SSE,153,0.0,4.0,61,0.00,,SKC,0.00,VWS V14.01,2013-04-07 01:42:00,
2013-04-06 20:47:00,71.9,57.7,29.86,SSE,153,0.0,0.0,61,0.00,,SKC,0.00,VWS V14.01,2013-04-07 01:47:00,
2013-04-06 20:50:00,71.9,57.7,29.86,SSE,153,0.0,5.0,61,0.00,,SKC,0.00,VWS V14.01,2013-04-07 01:50:00,
2013-04-06 20:52:00,71.6,57.9,29.86,SSE,161,0.0,5.0,62,0.00,,SKC,0.00,VWS V14.01,2013-04-07 01:52:00,
2013-04-06 20:57:00,71.4,57.7,29.87,SSE,161,0.0,0.0,62,0.00,,SKC,0.00,VWS V14.01,2013-04-07 01:57:00,
2013-04-06 21:00:00,71.4,57.7,29.87,SSE,161,0.0,5.0,62,0.00,,SKC,0.00,VWS V14.01,2013-04-07 02:00:00,
2013-04-06 21:02:00,71.1,57.0,29.86,SSE,161,0.0,4.0,61,0.00,,SKC,0.00,VWS V14.01,2013-04-07 02:02:00,
2013-04-06 21:07:00,70.9,57.2,29.86,SSE,161,0.0,1.0,62,0.00,,SKC,0.00,VWS V14.01,2013-04-07 02:07:00,
2013-04-06 21:10:00,70.9,57.2,29.86,SSE,161,0.0,5.0,62,0.00,,SKC,0.00,VWS V14.01,2013-04-07 02:10:00,
2013-04-06 21:12:00,70.6,57.0,29.87,SSE,161,0.0,3.0,62,0.00,,SKC,0.00,VWS V14.01,2013-04-07 02:12:00,
2013-04-06 21:17:00,70.3,57.6,29.87,SSE,160,0.0,1.0,64,0.00,,SKC,0.00,VWS V14.01,2013-04-07 02:17:00,
2013-04-06 21:20:00,70.3,57.1,29.87,SSE,161,0.0,5.0,63,0.00,,SKC,0.00,VWS V14.01,2013-04-07 02:20:00,
2013-04-06 21:22:00,69.9,57.6,29.87,SSE,157,0.0,5.0,65,0.00,,SKC,0.00,VWS V14.01,2013-04-07 02:22:00,
2013-04-06 21:27:00,69.6,57.8,29.88,SSE,155,0.0,0.0,66,0.00,,SKC,0.00,VWS V14.01,2013-04-07 02:27:00,
2013-04-06 21:30:00,69.7,57.8,29.88,SSE,155,0.0,6.0,66,0.00,,SKC,0.00,VWS V14.01,2013-04-07 02:30:00,
2013-04-06 21:32:00,69.4,57.6,29.88,SSE,150,0.0,9.0,66,0.00,,SKC,0.00,VWS V14.01,2013-04-07 02:32:00,
2013-04-06 21:37:00,69.0,57.6,29.88,SSE,150,0.0,1.0,67,0.00,,SKC,0.00,VWS V14.01,2013-04-07 02:37:00,
2013-04-06 21:40:00,69.1,57.7,29.88,SSE,150,0.0,9.0,67,0.00,,SKC,0.00,VWS V14.01,2013-04-07 02:40:00,
2013-04-06 21:42:00,68.8,57.8,29.88,SSE,148,0.0,5.0,68,0.00,,SKC,0.00,VWS V14.01,2013-04-07 02:42:00,
2013-04-06 21:47:00,68.5,57.9,29.88,SE,146,0.0,4.0,69,0.00,,SKC,0.00,VWS V14.01,2013-04-07 02:47:00,
2013-04-06 21:50:00,68.6,58.0,29.88,SE,145,0.0,7.0,69,0.00,,SKC,0.00,VWS V14.01,2013-04-07 02:50:00,
2013-04-06 21:52:00,68.3,58.2,29.88,SSE,160,0.0,9.0,70,0.00,,SKC,0.00,VWS V14.01,2013-04-07 02:52:00,
2013-04-06 21:57:00,68.1,58.0,29.88,SSE,148,0.0,0.0,70,0.00,,SKC,0.00,VWS V14.01,2013-04-07 02:57:00,
2013-04-06 22:00:00,68.1,58.0,29.88,SSE,148,0.0,9.0,70,0.00,,SKC,0.00,VWS V14.01,2013-04-07 03:00:00,
2013-04-06 22:02:00,67.8,58.1,29.88,SSE,147,0.0,3.0,71,0.00,,SKC,0.00,VWS V14.01,2013-04-07 03:02:00,
2013-04-06 22:07:00,67.6,58.3,29.89,SE,146,0.0,4.0,72,0.00,,SKC,0.00,VWS V14.01,2013-04-07 03:07:00,
2013-04-06 22:10:00,67.6,57.9,29.88,SE,146,0.0,6.0,71,0.00,,SKC,0.00,VWS V14.01,2013-04-07 03:10:00,
2013-04-06 22:12:00,67.3,58.0,29.89,SE,146,0.0,4.0,72,0.00,,SKC,0.00,VWS V14.01,2013-04-07 03:12:00,
2013-04-06 22:17:00,67.1,58.2,29.89,SE,144,0.0,2.0,73,0.00,,SKC,0.00,VWS V14.01,2013-04-07 03:17:00,
2013-04-06 22:20:00,67.2,58.3,29.89,SE,145,2.0,6.0,73,0.00,,SKC,0.00,VWS V14.01,2013-04-07 03:20:00,
2013-04-06 22:22:00,66.9,58.3,29.89,SE,145,0.0,5.0,74,0.00,,SKC,0.00,VWS V14.01,2013-04-07 03:22:00,
2013-04-06 22:27:00,66.7,58.2,29.89,SE,146,0.0,1.0,74,0.00,,SKC,0.00,VWS V14.01,2013-04-07 03:27:00,
2013-04-06 22:30:00,66.7,58.2,29.89,SE,146,0.0,5.0,74,0.00,,SKC,0.00,VWS V14.01,2013-04-07 03:30:00,
2013-04-06 22:32:00,66.5,58.3,29.89,SE,146,0.0,4.0,75,0.00,,SKC,0.00,VWS V14.01,2013-04-07 03:32:00,
2013-04-06 22:37:00,66.3,58.5,29.89,SE,144,0.0,0.0,76,0.00,,SKC,0.00,VWS V14.01,2013-04-07 03:37:00,
2013-04-06 22:40:00,66.3,58.5,29.89,SE,144,0.0,6.0,76,0.00,,SKC,0.00,VWS V14.01,2013-04-07 03:40:00,
2013-04-06 22:42:00,66.1,58.7,29.89,SE,145,3.0,7.0,77,0.00,,SKC,0.00,VWS V14.01,2013-04-07 03:42:00,
2013-04-06 22:47:00,65.9,58.9,29.89,SE,144,0.0,4.0,78,0.00,,SKC,0.00,VWS V14.01,2013-04-07 03:47:00,
2013-04-06 22:50:00,65.9,58.5,29.89,SE,144,4.0,7.0,77,0.00,,SKC,0.00,VWS V14.01,2013-04-07 03:50:00,
2013-04-06 22:52:00,65.7,58.7,29.90,SE,146,0.0,7.0,78,0.00,,SKC,0.00,VWS V14.01,2013-04-07 03:52:00,
2013-04-06 22:57:00,65.6,58.6,29.90,SE,146,0.0,0.0,78,0.00,,SKC,0.00,VWS V14.01,2013-04-07 03:57:00,
2013-04-06 23:00:00,65.5,58.8,29.89,SE,146,0.0,0.0,79,0.00,,SKC,0.00,VWS V14.01,2013-04-07 04:00:00,
2013-04-06 23:05:00,65.3,58.6,29.89,SE,146,0.0,6.0,79,0.00,,SKC,0.00,VWS V14.01,2013-04-07 04:05:00,
2013-04-06 23:10:00,65.1,58.8,29.89,SE,146,0.0,3.0,80,0.00,,SKC,0.00,VWS V14.01,2013-04-07 04:10:00,
2013-04-06 23:15:00,65.0,58.7,29.89,SE,146,0.0,5.0,80,0.00,,SKC,0.00,VWS V14.01,2013-04-07 04:15:00,
2013-04-06 23:20:00,64.9,58.9,29.89,SE,146,0.0,2.0,81,0.00,,SKC,0.00,VWS V14.01,2013-04-07 04:20:00,
2013-04-06 23:25:00,64.7,58.7,29.89,SE,146,0.0,4.0,81,0.00,,SKC,0.00,VWS V14.01,2013-04-07 04:25:00,
2013-04-06 23:30:00,64.5,58.5,29.89,SE,146,0.0,4.0,81,0.00,,SKC,0.00,VWS V14.01,2013-04-07 04:30:00,
2013-04-06 23:35:00,64.4,58.8,29.88,SE,146,0.0,5.0,82,0.00,,SKC,0.00,VWS V14.01,2013-04-07 04:35:00,
2013-04-06 23:40:00,64.3,58.7,29.88,SE,146,0.0,1.0,82,0.00,,SKC,0.00,VWS V14.01,2013-04-07 04:40:00,
2013-04-06 23:45:00,64.1,58.5,29.88,SE,146,0.0,5.0,82,0.00,,SKC,0.00,VWS V14.01,2013-04-07 04:45:00,
2013-04-06 23:50:00,64.0,58.7,29.88,SSE,147,1.0,7.0,83,0.00,,SKC,0.00,VWS V14.01,2013-04-07 04:50:00,
2013-04-06 23:55:00,63.9,58.6,29.88,SSE,150,0.0,9.0,83,0.00,,SKC,0.00,VWS V14.01,2013-04-07 04:55:00,